createdAt,value
2022-12-18T00:03:21.905Z,13.98
2022-12-18T00:08:27.736Z,18.53
2022-12-18T00:13:33.266Z,19.30
2022-12-18T00:18:39.586Z,21.60
2022-12-18T00:23:46.448Z,18.20
2022-12-18T00:34:00.522Z,12.30
2022-12-18T00:39:08.086Z,24.25
2022-12-18T00:44:14.944Z,21.02
2022-12-18T00:49:21.575Z,24.67
2022-12-18T00:54:28.239Z,17.20
2022-12-18T00:59:34.104Z,11.05
2022-12-18T01:04:40.069Z,13.57
2022-12-18T01:09:45.995Z,18.10
2022-12-18T01:14:51.577Z,23.90
2022-12-18T01:19:57.377Z,13.90
2022-12-18T01:25:03.132Z,18.47
2022-12-18T01:30:09.210Z,15.95
2022-12-18T01:35:14.764Z,22.43
2022-12-18T01:40:20.624Z,13.95
2022-12-18T01:45:28.994Z,16.65
2022-12-18T01:50:34.592Z,16.85
2022-12-18T01:55:55.140Z,13.52
2022-12-18T02:01:01.227Z,20.08
2022-12-18T02:06:13.734Z,28.83
2022-12-18T02:11:32.364Z,20.38
2022-12-18T02:16:56.145Z,21.70
2022-12-18T02:22:12.963Z,13.40
2022-12-18T02:27:19.210Z,26.88
2022-12-18T02:32:28.799Z,24.77
2022-12-18T02:37:34.806Z,22.73
2022-12-18T02:42:43.895Z,14.18
2022-12-18T02:47:53.515Z,24.42
2022-12-18T02:53:07.029Z,15.45
2022-12-18T02:58:16.355Z,20.80
2022-12-18T03:03:28.964Z,15.20
2022-12-18T03:08:37.247Z,19.30
2022-12-18T03:13:47.234Z,15.80
2022-12-18T03:18:56.094Z,17.23
2022-12-18T03:24:03.774Z,23.00
2022-12-18T03:29:41.961Z,14.45
2022-12-18T03:34:52.169Z,16.58
2022-12-18T03:40:00.518Z,13.50
2022-12-18T03:45:13.526Z,15.77
2022-12-18T03:50:31.068Z,19.48
2022-12-18T03:55:38.245Z,21.70
2022-12-18T04:00:46.462Z,16.17
2022-12-18T04:06:30.677Z,19.45
2022-12-18T04:11:39.643Z,13.20
2022-12-18T04:16:45.705Z,16.40
2022-12-18T04:21:57.519Z,23.50
2022-12-18T04:27:03.062Z,22.65
2022-12-18T04:32:13.987Z,10.15
2022-12-18T04:37:22.226Z,15.60
2022-12-18T04:42:29.377Z,32.88
2022-12-18T04:47:35.084Z,21.00
2022-12-18T04:52:41.501Z,15.32
2022-12-18T04:57:47.521Z,20.92
2022-12-18T05:02:53.620Z,24.17
2022-12-18T05:07:59.262Z,29.60
2022-12-18T05:13:05.474Z,20.00
2022-12-18T05:18:11.457Z,25.08
2022-12-18T05:28:23.268Z,27.42
2022-12-18T05:33:30.178Z,14.98
2022-12-18T05:38:36.325Z,18.83
2022-12-18T05:43:53.546Z,17.38
2022-12-18T05:48:59.904Z,31.90
2022-12-18T05:59:11.025Z,26.45
2022-12-18T06:04:17.250Z,23.90
2022-12-18T06:09:23.074Z,13.90
2022-12-18T06:14:28.451Z,15.93
2022-12-18T06:19:34.067Z,18.17
2022-12-18T06:24:39.770Z,21.38
2022-12-18T06:29:46.582Z,22.50
2022-12-18T06:34:52.452Z,28.13
2022-12-18T06:39:59.274Z,26.35
2022-12-18T06:45:04.752Z,18.98
2022-12-18T06:50:10.886Z,15.20
2022-12-18T06:55:16.652Z,20.58
2022-12-18T07:00:22.328Z,26.70
2022-12-18T07:05:28.365Z,22.07
2022-12-18T07:15:42.418Z,21.23
2022-12-18T07:20:49.100Z,15.13
2022-12-18T07:25:54.924Z,28.48
2022-12-18T07:31:03.020Z,27.50
2022-12-18T07:36:10.965Z,21.02
2022-12-18T07:41:17.657Z,22.90
2022-12-18T07:51:29.421Z,27.58
2022-12-18T07:56:35.436Z,26.27
2022-12-18T08:01:41.657Z,24.60
2022-12-18T08:06:48.808Z,17.58
2022-12-18T08:11:54.478Z,25.60
2022-12-18T08:17:00.372Z,19.57
2022-12-18T08:27:28.775Z,30.48
2022-12-18T08:32:35.916Z,28.30
2022-12-18T08:37:41.888Z,24.42
2022-12-18T08:43:06.939Z,25.00
2022-12-18T08:48:16.588Z,24.75
2022-12-18T08:53:25.150Z,25.33
2022-12-18T08:58:30.872Z,23.30
2022-12-18T09:03:37.700Z,23.48
2022-12-18T09:08:44.256Z,26.67
2022-12-18T09:13:50.219Z,36.00
2022-12-18T09:19:01.605Z,28.08
2022-12-18T09:24:08.820Z,27.45
2022-12-18T09:29:14.967Z,32.55
2022-12-18T09:34:24.990Z,36.30
2022-12-18T09:39:30.571Z,39.45
2022-12-18T09:44:48.485Z,34.97
2022-12-18T09:49:57.094Z,37.97
2022-12-18T09:55:18.645Z,49.80
2022-12-18T10:00:25.541Z,33.25
2022-12-18T10:05:54.185Z,41.08
2022-12-18T10:11:25.511Z,35.08
2022-12-18T10:16:31.323Z,51.50
2022-12-18T10:22:00.094Z,40.80
2022-12-18T10:27:19.360Z,43.58
2022-12-18T10:32:30.210Z,37.60
2022-12-18T10:37:35.943Z,52.17
2022-12-18T10:42:42.219Z,52.63
2022-12-18T10:47:52.834Z,42.75
2022-12-18T10:53:06.729Z,48.40
2022-12-18T10:58:27.181Z,47.72
2022-12-18T11:03:40.108Z,50.78
2022-12-18T11:08:46.940Z,64.90
2022-12-18T11:14:02.436Z,53.20
2022-12-18T11:19:21.522Z,56.65
2022-12-18T11:24:28.593Z,58.83
2022-12-18T11:29:46.773Z,51.65
2022-12-18T11:34:59.057Z,57.70
2022-12-18T11:40:15.798Z,54.78
2022-12-18T11:45:27.749Z,59.78
2022-12-18T11:50:37.859Z,69.50
2022-12-18T11:55:47.563Z,65.45
2022-12-18T12:00:56.824Z,64.97
2022-12-18T12:06:05.782Z,64.28
2022-12-18T12:11:34.158Z,66.68
2022-12-18T12:17:12.869Z,65.50
2022-12-18T12:22:27.596Z,61.40
2022-12-18T12:27:40.184Z,73.57
2022-12-18T12:32:58.887Z,64.95
2022-12-18T12:38:30.524Z,60.70
2022-12-18T12:43:50.817Z,73.43
2022-12-18T12:49:00.597Z,73.68
2022-12-18T12:54:15.334Z,82.40
2022-12-18T12:59:38.166Z,87.32
2022-12-18T13:04:48.659Z,82.20
2022-12-18T13:10:12.930Z,86.82
2022-12-18T13:15:24.884Z,86.82
2022-12-18T13:20:36.663Z,87.45
2022-12-18T13:25:43.293Z,100.75
2022-12-18T13:30:53.844Z,95.22
2022-12-18T13:36:13.381Z,85.22
2022-12-18T13:41:19.113Z,80.23
2022-12-18T13:46:32.291Z,88.57
2022-12-18T13:51:39.713Z,80.35
2022-12-18T13:56:50.363Z,75.13
2022-12-18T14:02:00.007Z,73.85
2022-12-18T14:07:19.052Z,69.82
2022-12-18T14:12:45.703Z,68.28
2022-12-18T14:17:54.144Z,72.15
2022-12-18T14:23:00.414Z,75.50
2022-12-18T14:28:10.519Z,67.68
2022-12-18T14:33:17.789Z,65.20
2022-12-18T14:38:29.791Z,60.33
2022-12-18T14:43:37.362Z,70.45
2022-12-18T14:48:44.819Z,68.25
2022-12-18T14:53:55.684Z,61.33
2022-12-18T14:59:07.125Z,56.83
2022-12-18T15:04:34.086Z,65.28
2022-12-18T15:09:44.114Z,65.50
2022-12-18T15:14:50.888Z,66.65
2022-12-18T15:20:06.782Z,89.75
2022-12-18T15:25:35.729Z,87.82
2022-12-18T15:30:44.525Z,81.30
2022-12-18T15:35:56.537Z,85.68
2022-12-18T15:41:02.430Z,89.50
2022-12-18T15:46:09.978Z,92.77
2022-12-18T15:51:22.846Z,83.47
2022-12-18T15:56:46.401Z,84.05
2022-12-18T16:01:57.636Z,91.72
2022-12-18T16:07:14.914Z,88.90
2022-12-18T16:12:24.831Z,88.57
2022-12-18T16:17:34.259Z,96.03
2022-12-18T16:22:41.810Z,108.10
2022-12-18T16:27:48.176Z,99.18
2022-12-18T16:32:58.463Z,94.78
2022-12-18T16:38:04.434Z,89.32
2022-12-18T16:43:13.642Z,106.68
2022-12-18T16:48:19.857Z,104.13
2022-12-18T16:53:31.412Z,99.43
2022-12-18T16:58:49.484Z,99.18
2022-12-18T17:04:14.147Z,97.50
2022-12-18T17:09:31.884Z,100.28
2022-12-18T17:14:40.799Z,102.13
2022-12-18T17:19:46.572Z,100.57
2022-12-18T17:25:02.410Z,101.30
2022-12-18T17:30:08.373Z,98.10
2022-12-18T17:35:16.860Z,99.90
2022-12-18T17:40:23.409Z,115.55
2022-12-18T17:45:32.549Z,106.35
2022-12-18T17:50:41.612Z,123.40
2022-12-18T17:55:47.285Z,115.15
2022-12-18T18:00:55.051Z,127.87
2022-12-18T18:06:04.182Z,131.27
2022-12-18T18:11:37.124Z,127.05
2022-12-18T18:16:47.850Z,128.30
2022-12-18T18:21:54.948Z,128.70
2022-12-18T18:27:03.916Z,142.40
2022-12-18T18:32:10.438Z,142.00
2022-12-18T18:42:21.103Z,123.65
2022-12-18T18:47:27.222Z,112.13
2022-12-18T18:52:32.919Z,116.18
2022-12-18T18:57:39.729Z,110.28
2022-12-18T19:02:44.969Z,102.75
2022-12-18T19:07:50.429Z,107.45
2022-12-18T19:13:14.403Z,87.25
2022-12-18T19:18:20.436Z,95.88
2022-12-18T19:23:26.818Z,93.93
2022-12-18T19:28:33.493Z,81.03
2022-12-18T19:33:43.527Z,94.43
2022-12-18T19:38:49.821Z,83.40
2022-12-18T19:43:55.896Z,82.57
2022-12-18T19:49:04.392Z,76.13
2022-12-18T19:54:13.347Z,84.78
2022-12-18T19:59:22.208Z,89.47
2022-12-18T20:04:27.911Z,94.38
2022-12-18T20:09:33.429Z,80.77
2022-12-18T20:14:39.003Z,87.73
2022-12-18T20:19:45.530Z,87.00
2022-12-18T20:24:54.693Z,90.35
2022-12-18T20:30:00.290Z,72.77
2022-12-18T20:35:05.846Z,90.35
2022-12-18T20:40:12.096Z,105.43
2022-12-18T20:45:23.119Z,127.55
2022-12-18T20:50:28.458Z,112.85
2022-12-18T20:55:34.226Z,106.22
2022-12-18T21:00:39.997Z,88.80
2022-12-18T21:05:45.463Z,94.63
2022-12-18T21:10:50.858Z,88.15
2022-12-18T21:15:56.631Z,88.70
2022-12-18T21:21:02.129Z,84.93
2022-12-18T21:26:21.181Z,81.00
2022-12-18T21:31:28.191Z,80.72
2022-12-18T21:36:34.858Z,80.95
2022-12-18T21:41:58.552Z,85.32
2022-12-18T21:47:13.806Z,72.97
2022-12-18T21:52:31.331Z,78.75
2022-12-18T21:57:38.690Z,80.95
2022-12-18T22:02:44.717Z,65.25
2022-12-18T22:07:50.505Z,76.60
2022-12-18T22:12:56.242Z,74.73
2022-12-18T22:18:01.813Z,69.80
2022-12-18T22:23:07.595Z,85.75
2022-12-18T22:28:31.306Z,66.63
2022-12-18T22:33:37.010Z,83.97
2022-12-18T22:38:42.665Z,78.80
2022-12-18T22:43:48.297Z,78.93
2022-12-18T22:48:54.292Z,78.37
2022-12-18T22:54:00.120Z,76.73
2022-12-18T22:59:06.035Z,106.77
2022-12-18T23:04:11.842Z,69.65
2022-12-18T23:09:19.069Z,77.03
2022-12-18T23:14:24.483Z,103.50
2022-12-18T23:19:30.452Z,88.32
2022-12-18T23:24:36.148Z,117.17
2022-12-18T23:29:42.105Z,126.73
2022-12-18T23:34:48.630Z,103.97
2022-12-18T23:39:54.212Z,114.60
2022-12-18T23:45:00.034Z,112.10
2022-12-18T23:50:07.260Z,123.03
2022-12-18T23:55:13.124Z,120.43
